Time;durP1;ratioP1;P1;durP2;ratioP2;P2;SDS_P1;SDS_P2;PMS_P1;PMS_P2;Temp;Humidity;BMP_temperature;BMP_pressure;BME280_temperature;BME280_humidity;BME280_pressure;Samples;Min_cycle;Max_cycle;Signal;HPM_P1;HPM_P2
2022/12/17 13:07:38;;;;;;;10.93;9.83;;;;;;;;;;4964942;28;20234;-85
2022/12/17 13:10:20;;;;;;;13.73;10.93;;;;;;;;;;4950280;28;20310;-84
2022/12/17 13:12:48;;;;;;;10.47;9.47;;;;;;;;;;4965421;28;20226;-86
2022/12/17 13:15:22;;;;;;;10.53;9.43;;;;;;;;;;4956874;28;20648;-85
2022/12/17 13:18:12;;;;;;;21.33;11.20;;;;;;;;;;4958952;28;20308;-85
2022/12/17 13:20:37;;;;;;;12.53;8.63;;;;;;;;;;4980071;28;20570;-85
2022/12/17 13:23:26;;;;;;;10.37;9.30;;;;;;;;;;4985024;28;20257;-86
2022/12/17 13:26:13;;;;;;;13.00;10.27;;;;;;;;;;4985713;28;20218;-84
2022/12/17 13:28:39;;;;;;;12.43;10.87;;;;;;;;;;5011915;28;20225;-86
2022/12/17 13:31:12;;;;;;;12.63;11.43;;;;;;;;;;4985761;28;20309;-84
2022/12/17 13:33:59;;;;;;;12.13;10.17;;;;;;;;;;4966459;28;20254;-85
2022/12/17 13:36:59;;;;;;;15.63;11.93;;;;;;;;;;4986045;28;20313;-86
2022/12/17 13:39:41;;;;;;;16.80;11.10;;;;;;;;;;4967821;28;20234;-85
2022/12/17 13:42:29;;;;;;;11.93;10.73;;;;;;;;;;4967381;28;20227;-85
2022/12/17 13:44:55;;;;;;;12.90;11.17;;;;;;;;;;4937954;29;20230;-85
2022/12/17 13:47:27;;;;;;;12.93;11.50;;;;;;;;;;4937697;28;20231;-84
2022/12/17 13:49:59;;;;;;;12.90;11.23;;;;;;;;;;4954279;28;20214;-85
2022/12/17 13:52:33;;;;;;;13.07;11.63;;;;;;;;;;4934572;28;20227;-84
2022/12/17 13:55:12;;;;;;;12.00;10.80;;;;;;;;;;4931754;29;20223;-86
2022/12/17 13:57:46;;;;;;;13.00;10.07;;;;;;;;;;4965810;28;20227;-85
2022/12/17 14:00:28;;;;;;;11.57;10.47;;;;;;;;;;4968389;28;20227;-86
2022/12/17 14:02:54;;;;;;;11.03;9.97;;;;;;;;;;4979573;28;20214;-83
2022/12/17 14:05:41;;;;;;;10.77;9.77;;;;;;;;;;4979850;28;20273;-83
2022/12/17 14:08:07;;;;;;;11.60;9.90;;;;;;;;;;4989730;28;20250;-85
2022/12/17 14:10:33;;;;;;;12.00;10.90;;;;;;;;;;4960288;28;20231;-84
2022/12/17 14:13:10;;;;;;;10.97;9.97;;;;;;;;;;4975131;28;20218;-83
2022/12/17 14:15:36;;;;;;;12.87;10.40;;;;;;;;;;4981446;28;20224;-85
2022/12/17 14:18:02;;;;;;;11.50;10.33;;;;;;;;;;4937602;29;20564;-86
2022/12/17 14:20:31;;;;;;;11.33;10.17;;;;;;;;;;4936708;28;20622;-84
2022/12/17 14:23:02;;;;;;;10.03;9.10;;;;;;;;;;4959661;28;20218;-86
2022/12/17 14:25:31;;;;;;;11.97;10.27;;;;;;;;;;4953133;28;20241;-86
2022/12/17 14:28:02;;;;;;;10.50;9.40;;;;;;;;;;4941993;28;20229;-85
2022/12/17 14:30:39;;;;;;;11.33;9.60;;;;;;;;;;4945425;28;20225;-86
2022/12/17 14:33:32;;;;;;;10.00;9.00;;;;;;;;;;4962440;28;20653;-84
2022/12/17 14:36:24;;;;;;;12.93;9.10;;;;;;;;;;4951479;28;20221;-85
2022/12/17 14:38:56;;;;;;;10.10;9.00;;;;;;;;;;4963967;28;20221;-84
2022/12/17 14:44:06;;;;;;;13.20;9.43;;;;;;;;;;4973765;28;20230;-86
2022/12/17 14:46:40;;;;;;;14.47;11.13;;;;;;;;;;4951245;28;20251;-85
2022/12/17 14:49:14;;;;;;;14.80;13.30;;;;;;;;;;4939528;28;20707;-85
2022/12/17 14:51:42;;;;;;;12.70;11.20;;;;;;;;;;4982747;28;20241;-85
2022/12/17 14:54:13;;;;;;;15.50;11.33;;;;;;;;;;4952387;28;20253;-85
2022/12/17 14:56:42;;;;;;;11.10;9.90;;;;;;;;;;4976443;28;20238;-86
2022/12/17 14:59:29;;;;;;;11.30;10.13;;;;;;;;;;4963147;28;20994;-85
2022/12/17 15:01:57;;;;;;;9.60;7.97;;;;;;;;;;4952242;28;20703;-84
2022/12/17 15:04:26;;;;;;;10.27;8.67;;;;;;;;;;4948860;28;20289;-86
2022/12/17 15:06:53;;;;;;;9.33;8.43;;;;;;;;;;4957118;28;20289;-86
2022/12/17 15:09:19;;;;;;;9.63;8.70;;;;;;;;;;4934875;28;20237;-85
2022/12/17 15:11:45;;;;;;;12.80;8.67;;;;;;;;;;4961970;28;20223;-86
2022/12/17 15:14:10;;;;;;;9.27;7.80;;;;;;;;;;4961872;28;20245;-85
2022/12/17 15:16:39;;;;;;;9.80;8.77;;;;;;;;;;4965957;28;20237;-86
2022/12/17 15:19:05;;;;;;;9.53;8.63;;;;;;;;;;4952259;28;20226;-85
2022/12/17 15:21:41;;;;;;;10.23;7.87;;;;;;;;;;4948286;28;20303;-85
2022/12/17 15:24:10;;;;;;;10.00;8.30;;;;;;;;;;4952928;28;20246;-86
2022/12/17 15:26:40;;;;;;;10.00;9.00;;;;;;;;;;4953630;28;21096;-86
2022/12/17 15:29:11;;;;;;;13.83;8.67;;;;;;;;;;4935410;28;20228;-86
2022/12/17 15:31:43;;;;;;;9.67;8.10;;;;;;;;;;4922374;28;20230;-86
2022/12/17 15:34:11;;;;;;;10.13;8.53;;;;;;;;;;4980978;28;20233;-86
2022/12/17 15:36:38;;;;;;;8.97;7.90;;;;;;;;;;4950506;28;20682;-87
2022/12/17 15:45:18;;;;;;;9.07;8.17;;;;;;;;;;4954810;28;20300;-86
2022/12/17 15:47:46;;;;;;;11.20;8.70;;;;;;;;;;4959879;28;20226;-87
2022/12/17 15:50:20;;;;;;;9.40;8.50;;;;;;;;;;4948429;28;20222;-87
2022/12/17 15:52:49;;;;;;;10.57;8.30;;;;;;;;;;4934409;28;20258;-87
2022/12/17 15:55:15;;;;;;;11.20;9.10;;;;;;;;;;4938341;28;20726;-86
2022/12/17 15:57:54;;;;;;;10.60;9.50;;;;;;;;;;4965868;28;20281;-86
2022/12/17 16:00:23;;;;;;;10.87;9.00;;;;;;;;;;4916746;28;20702;-83
2022/12/17 16:02:51;;;;;;;11.97;8.57;;;;;;;;;;4954395;28;20222;-86
2022/12/17 16:05:20;;;;;;;10.87;9.07;;;;;;;;;;4970045;28;20237;-86
2022/12/17 16:07:51;;;;;;;10.40;9.33;;;;;;;;;;4934816;28;20231;-84
2022/12/17 16:10:20;;;;;;;10.50;9.27;;;;;;;;;;4950200;28;20282;-86
2022/12/17 16:12:53;;;;;;;11.80;9.50;;;;;;;;;;4971528;28;20230;-85
2022/12/17 16:15:21;;;;;;;10.30;9.30;;;;;;;;;;4947297;28;20217;-86
2022/12/17 16:17:50;;;;;;;13.70;9.27;;;;;;;;;;4963164;28;20211;-86
2022/12/17 16:20:16;;;;;;;11.50;10.20;;;;;;;;;;4969542;28;20290;-87
2022/12/17 16:22:51;;;;;;;14.83;9.83;;;;;;;;;;4949378;28;20252;-84
2022/12/17 16:28:29;;;;;;;11.17;9.83;;;;;;;;;;4951902;28;20230;-87
2022/12/17 16:30:59;;;;;;;15.90;10.77;;;;;;;;;;4979237;28;20294;-85
2022/12/17 16:33:33;;;;;;;11.17;10.07;;;;;;;;;;4962092;28;20254;-85
2022/12/17 16:35:59;;;;;;;12.97;11.07;;;;;;;;;;4972640;28;20301;-85
2022/12/17 16:38:27;;;;;;;13.33;10.53;;;;;;;;;;4939339;28;20256;-85
2022/12/17 16:41:01;;;;;;;14.30;11.97;;;;;;;;;;4948173;28;20266;-87
2022/12/17 16:43:41;;;;;;;13.10;11.07;;;;;;;;;;4948329;28;20222;-87
2022/12/17 16:46:29;;;;;;;12.70;11.33;;;;;;;;;;4949766;28;20237;-87
2022/12/17 16:48:58;;;;;;;13.13;9.50;;;;;;;;;;4976999;28;20680;-86
2022/12/17 16:51:25;;;;;;;15.07;10.17;;;;;;;;;;4944263;28;20229;-85
2022/12/17 16:53:51;;;;;;;24.33;18.67;;;;;;;;;;4938438;28;20230;-86
2022/12/17 16:56:21;;;;;;;22.17;16.90;;;;;;;;;;4937834;28;20228;-86
2022/12/17 16:58:49;;;;;;;18.73;14.87;;;;;;;;;;4967459;28;20222;-87
2022/12/17 17:01:22;;;;;;;18.37;14.63;;;;;;;;;;4965051;28;20253;-85
2022/12/17 17:03:47;;;;;;;14.57;13.07;;;;;;;;;;4956660;28;20231;-85
2022/12/17 17:06:18;;;;;;;13.90;11.67;;;;;;;;;;4950882;28;20222;-84
2022/12/17 17:08:44;;;;;;;15.57;11.50;;;;;;;;;;4956478;28;20234;-85
2022/12/17 17:11:14;;;;;;;15.27;11.33;;;;;;;;;;4989285;28;20244;-84
2022/12/17 17:13:42;;;;;;;14.13;12.20;;;;;;;;;;4976086;28;20258;-86
2022/12/17 17:16:12;;;;;;;16.53;12.37;;;;;;;;;;4948464;28;20301;-85
2022/12/17 17:18:42;;;;;;;15.30;13.33;;;;;;;;;;4963494;28;20235;-85
2022/12/17 17:21:20;;;;;;;19.53;15.20;;;;;;;;;;4960319;28;20308;-86
2022/12/17 17:23:54;;;;;;;18.17;14.43;;;;;;;;;;4989557;28;20219;-86
2022/12/17 17:26:25;;;;;;;20.90;18.40;;;;;;;;;;4958632;28;20222;-86
2022/12/17 17:28:53;;;;;;;20.50;16.53;;;;;;;;;;4964524;28;20222;-86
2022/12/17 17:31:23;;;;;;;18.47;14.00;;;;;;;;;;4941986;28;20214;-86
2022/12/17 17:33:52;;;;;;;15.70;12.23;;;;;;;;;;4960501;28;20373;-86
2022/12/17 17:36:22;;;;;;;14.33;12.47;;;;;;;;;;4943852;28;20250;-85
2022/12/17 17:38:51;;;;;;;13.63;11.80;;;;;;;;;;4944867;28;20306;-85
2022/12/17 17:41:19;;;;;;;16.27;13.70;;;;;;;;;;4954543;28;20699;-85
2022/12/17 17:43:44;;;;;;;19.23;13.13;;;;;;;;;;4970695;28;20293;-86
2022/12/17 17:46:17;;;;;;;14.50;12.93;;;;;;;;;;4946502;28;20245;-86
2022/12/17 17:48:46;;;;;;;17.60;15.10;;;;;;;;;;4952922;28;20226;-86
2022/12/17 17:51:21;;;;;;;21.30;16.37;;;;;;;;;;4934132;28;20230;-86
2022/12/17 17:53:53;;;;;;;23.63;19.23;;;;;;;;;;4966386;28;20237;-86
2022/12/17 17:56:24;;;;;;;23.03;18.03;;;;;;;;;;4951178;28;20281;-85
2022/12/17 17:58:57;;;;;;;27.67;19.07;;;;;;;;;;4981851;28;20309;-86
2022/12/17 18:01:25;;;;;;;20.57;16.50;;;;;;;;;;4961330;28;20288;-86
2022/12/17 18:03:51;;;;;;;17.17;14.37;;;;;;;;;;4966877;28;20229;-86
2022/12/17 18:06:18;;;;;;;17.70;15.13;;;;;;;;;;4978108;28;20225;-85
2022/12/17 18:08:44;;;;;;;17.87;14.27;;;;;;;;;;4941160;28;20226;-85
2022/12/17 18:11:16;;;;;;;15.63;13.77;;;;;;;;;;4955302;28;20230;-85
2022/12/17 18:13:53;;;;;;;22.00;15.70;;;;;;;;;;4962443;28;20248;-86
2022/12/17 18:16:31;;;;;;;18.60;13.27;;;;;;;;;;4968802;28;20210;-87
2022/12/17 18:19:01;;;;;;;14.50;12.73;;;;;;;;;;4966666;28;20233;-85
2022/12/17 18:21:28;;;;;;;14.93;13.03;;;;;;;;;;4950844;28;20302;-85
2022/12/17 18:24:01;;;;;;;15.33;12.93;;;;;;;;;;4965300;28;20245;-87
2022/12/17 18:26:34;;;;;;;15.00;11.87;;;;;;;;;;4948020;28;20225;-86
2022/12/17 18:29:03;;;;;;;18.00;13.20;;;;;;;;;;4980539;28;20229;-87
2022/12/17 18:31:29;;;;;;;15.07;12.47;;;;;;;;;;4960587;28;20225;-87
2022/12/17 18:33:56;;;;;;;15.93;13.30;;;;;;;;;;4969037;28;20239;-87
2022/12/17 18:36:33;;;;;;;17.43;13.10;;;;;;;;;;4961688;28;20281;-88
2022/12/17 18:39:05;;;;;;;15.50;13.43;;;;;;;;;;4960868;28;20226;-86
2022/12/17 18:44:20;;;;;;;14.10;12.60;;;;;;;;;;4977090;28;20261;-86
2022/12/17 18:46:46;;;;;;;18.70;13.73;;;;;;;;;;4962386;28;20211;-86
2022/12/17 18:49:14;;;;;;;17.03;13.17;;;;;;;;;;4976291;28;20219;-86
2022/12/17 18:51:41;;;;;;;19.50;14.83;;;;;;;;;;4975144;28;20225;-87
2022/12/17 18:54:09;;;;;;;18.50;13.80;;;;;;;;;;4969719;28;20241;-88
2022/12/17 18:56:37;;;;;;;18.93;13.47;;;;;;;;;;4967011;28;20224;-87
2022/12/17 18:59:06;;;;;;;15.03;12.87;;;;;;;;;;4965885;28;20240;-87
2022/12/17 19:01:49;;;;;;;17.53;12.67;;;;;;;;;;4969950;28;20302;-88
2022/12/17 19:04:28;;;;;;;;;;;;;;;;;;;;;
2022/12/17 19:06:54;;;;;;;14.90;12.00;;;;;;;;;;4984324;28;20254;-88
2022/12/17 19:09:35;;;;;;;13.43;11.27;;;;;;;;;;4996297;28;20249;-88
2022/12/17 19:12:02;;;;;;;13.90;11.57;;;;;;;;;;4974899;28;20257;-88
2022/12/17 19:14:49;;;;;;;;;;;;;;;;;;;;;
2022/12/17 19:17:32;;;;;;;17.03;14.23;;;;;;;;;;4940494;28;20265;-88
2022/12/17 19:20:19;;;;;;;16.43;12.53;;;;;;;;;;4960405;28;20321;-88
2022/12/17 19:23:04;;;;;;;;;;;;;;;;;;;;;
2022/12/17 19:25:30;;;;;;;14.40;11.50;;;;;;;;;;4963140;28;20283;-89
2022/12/17 19:28:02;;;;;;;14.93;11.13;;;;;;;;;;4958146;28;20242;-89
2022/12/17 19:30:36;;;;;;;16.77;11.30;;;;;;;;;;4949504;28;20313;-88
2022/12/17 19:33:04;;;;;;;14.20;10.80;;;;;;;;;;4960315;28;20253;-86
2022/12/17 19:35:35;;;;;;;17.70;10.73;;;;;;;;;;4962833;28;20253;-88
2022/12/17 19:38:03;;;;;;;13.00;11.60;;;;;;;;;;4944145;28;20241;-87
2022/12/17 19:40:29;;;;;;;11.30;9.53;;;;;;;;;;4945124;28;20234;-86
2022/12/17 19:42:55;;;;;;;14.47;10.93;;;;;;;;;;4949453;28;20233;-87
2022/12/17 19:45:21;;;;;;;13.93;10.90;;;;;;;;;;4956441;28;20217;-86
2022/12/17 19:47:50;;;;;;;13.33;10.73;;;;;;;;;;4934901;28;20301;-85
2022/12/17 19:50:16;;;;;;;14.20;11.87;;;;;;;;;;4962266;28;20667;-84
2022/12/17 19:52:45;;;;;;;14.13;11.57;;;;;;;;;;4966436;28;20593;-85
2022/12/17 19:55:19;;;;;;;14.33;11.00;;;;;;;;;;4955977;28;20241;-86
2022/12/17 19:57:45;;;;;;;13.40;11.10;;;;;;;;;;4975974;28;20913;-84
2022/12/17 20:00:11;;;;;;;14.43;10.90;;;;;;;;;;4940497;28;20257;-85
2022/12/17 20:02:40;;;;;;;12.50;10.83;;;;;;;;;;4930321;28;20656;-83
2022/12/17 20:05:09;;;;;;;14.53;10.90;;;;;;;;;;4949082;28;20229;-84
2022/12/17 20:07:35;;;;;;;13.03;11.03;;;;;;;;;;4957590;28;20215;-85
2022/12/17 20:10:01;;;;;;;17.63;12.27;;;;;;;;;;4968502;28;20229;-85
2022/12/17 20:12:27;;;;;;;17.43;13.50;;;;;;;;;;4967391;28;20223;-85
2022/12/17 20:14:54;;;;;;;14.47;12.37;;;;;;;;;;4956253;28;20227;-85
2022/12/17 20:17:19;;;;;;;13.40;10.60;;;;;;;;;;4939894;28;20230;-85
2022/12/17 20:19:48;;;;;;;16.27;12.43;;;;;;;;;;4949661;28;20234;-85
2022/12/17 20:22:14;;;;;;;12.57;11.27;;;;;;;;;;4958877;28;20261;-84
2022/12/17 20:24:42;;;;;;;15.20;11.93;;;;;;;;;;4961410;28;20218;-83
2022/12/17 20:27:07;;;;;;;15.33;12.00;;;;;;;;;;4940624;28;20223;-85
2022/12/17 20:29:36;;;;;;;12.87;11.53;;;;;;;;;;4946894;28;20281;-85
2022/12/17 20:32:04;;;;;;;15.90;11.67;;;;;;;;;;4937873;28;20238;-85
2022/12/17 20:34:30;;;;;;;13.77;11.63;;;;;;;;;;4943491;28;20234;-84
2022/12/17 20:36:56;;;;;;;13.93;12.13;;;;;;;;;;4941343;28;20230;-84
2022/12/17 20:39:26;;;;;;;13.70;12.30;;;;;;;;;;4946605;28;20230;-83
2022/12/17 20:41:54;;;;;;;16.03;12.83;;;;;;;;;;4952438;28;20284;-85
2022/12/17 20:44:22;;;;;;;18.03;12.27;;;;;;;;;;4952600;28;20227;-84
2022/12/17 20:46:49;;;;;;;14.50;11.33;;;;;;;;;;4950588;28;20226;-84
2022/12/17 20:49:17;;;;;;;13.30;10.73;;;;;;;;;;4953816;28;20451;-84
2022/12/17 20:51:43;;;;;;;15.50;11.93;;;;;;;;;;4934028;28;20695;-84
2022/12/17 20:54:14;;;;;;;16.43;11.77;;;;;;;;;;4928830;28;20246;-85
2022/12/17 20:56:44;;;;;;;14.23;11.83;;;;;;;;;;4963955;28;20232;-85
2022/12/17 20:59:13;;;;;;;16.30;12.13;;;;;;;;;;4960987;28;20229;-85
2022/12/17 21:01:41;;;;;;;13.80;12.30;;;;;;;;;;4950395;28;20347;-85
2022/12/17 21:04:17;;;;;;;13.53;11.83;;;;;;;;;;4958788;28;20308;-85
2022/12/17 21:06:44;;;;;;;17.40;12.60;;;;;;;;;;4944427;28;20309;-85
2022/12/17 21:09:13;;;;;;;14.80;11.73;;;;;;;;;;4952282;28;20225;-82
2022/12/17 21:11:41;;;;;;;16.17;11.70;;;;;;;;;;4940952;28;20234;-82
2022/12/17 21:14:15;;;;;;;16.17;12.07;;;;;;;;;;4948525;28;20225;-83
2022/12/17 21:16:41;;;;;;;16.63;12.00;;;;;;;;;;4993669;28;20226;-82
2022/12/17 21:19:08;;;;;;;16.83;12.30;;;;;;;;;;4951661;28;20643;-83
2022/12/17 21:21:39;;;;;;;14.90;13.23;;;;;;;;;;4972238;28;20230;-83
2022/12/17 21:24:08;;;;;;;14.90;11.57;;;;;;;;;;4949951;28;20762;-82
2022/12/17 21:26:40;;;;;;;18.47;11.50;;;;;;;;;;4967487;28;20258;-82
2022/12/17 21:29:06;;;;;;;12.67;10.27;;;;;;;;;;4956342;28;20230;-82
2022/12/17 21:31:39;;;;;;;12.53;10.70;;;;;;;;;;4951750;28;20249;-83
2022/12/17 21:34:09;;;;;;;14.23;11.93;;;;;;;;;;4960328;28;20234;-81
2022/12/17 21:36:40;;;;;;;12.17;10.53;;;;;;;;;;4960447;28;20714;-82
2022/12/17 21:39:08;;;;;;;13.07;10.93;;;;;;;;;;4951843;28;20621;-82
2022/12/17 21:41:34;;;;;;;14.90;11.23;;;;;;;;;;4960334;28;20214;-82
2022/12/17 21:44:04;;;;;;;13.30;10.93;;;;;;;;;;4939618;28;20317;-82
2022/12/17 21:46:30;;;;;;;16.40;11.23;;;;;;;;;;4957112;28;20665;-83
2022/12/17 21:48:57;;;;;;;14.63;11.97;;;;;;;;;;4953263;28;20296;-83
2022/12/17 21:51:23;;;;;;;17.13;12.50;;;;;;;;;;4939605;28;20230;-83
2022/12/17 21:53:53;;;;;;;20.40;12.70;;;;;;;;;;4941237;28;20297;-83
2022/12/17 21:56:22;;;;;;;12.17;10.87;;;;;;;;;;4964198;28;20233;-84
2022/12/17 21:58:54;;;;;;;13.00;11.40;;;;;;;;;;4971326;28;20225;-83
2022/12/17 22:01:21;;;;;;;13.87;11.37;;;;;;;;;;4960651;28;20284;-84
2022/12/17 22:03:47;;;;;;;14.17;11.37;;;;;;;;;;4961843;28;20226;-82
2022/12/17 22:06:16;;;;;;;18.90;13.83;;;;;;;;;;4942354;28;20228;-84
2022/12/17 22:08:44;;;;;;;18.63;13.50;;;;;;;;;;4962336;28;21006;-83
2022/12/17 22:11:11;;;;;;;14.80;12.10;;;;;;;;;;4954094;28;20233;-82
2022/12/17 22:16:24;;;;;;;19.13;13.57;;;;;;;;;;4933534;28;20301;-82
2022/12/17 22:18:52;;;;;;;18.13;12.53;;;;;;;;;;4974432;28;20214;-83
2022/12/17 22:21:18;;;;;;;18.73;14.13;;;;;;;;;;4974779;28;20714;-82
2022/12/17 22:23:45;;;;;;;19.17;14.33;;;;;;;;;;4972959;28;20651;-82
2022/12/17 22:26:14;;;;;;;16.23;12.43;;;;;;;;;;4956187;28;20234;-82
2022/12/17 22:28:47;;;;;;;20.30;12.70;;;;;;;;;;4943016;28;20222;-83
2022/12/17 22:34:00;;;;;;;14.80;11.03;;;;;;;;;;4940124;29;20226;-84
2022/12/17 22:36:30;;;;;;;12.13;10.67;;;;;;;;;;4951551;28;21025;-84
2022/12/17 22:38:58;;;;;;;16.73;11.27;;;;;;;;;;4987936;28;20229;-85
2022/12/17 22:44:09;;;;;;;15.53;10.70;;;;;;;;;;4938363;28;20226;-84
2022/12/17 22:46:35;;;;;;;12.93;10.80;;;;;;;;;;4959632;28;20232;-86
2022/12/17 22:49:03;;;;;;;14.67;11.40;;;;;;;;;;4942697;29;20230;-86
2022/12/17 22:51:33;;;;;;;13.13;10.77;;;;;;;;;;4943266;28;20719;-84
2022/12/17 22:54:03;;;;;;;12.93;10.67;;;;;;;;;;4946519;28;20282;-84
2022/12/17 22:56:28;;;;;;;12.53;11.23;;;;;;;;;;4974107;28;20289;-85
2022/12/17 22:58:59;;;;;;;18.93;11.00;;;;;;;;;;4956185;28;20695;-85
2022/12/17 23:01:27;;;;;;;12.63;10.20;;;;;;;;;;4963892;28;20225;-83
2022/12/17 23:03:56;;;;;;;14.03;11.20;;;;;;;;;;4947685;28;20214;-84
2022/12/17 23:06:24;;;;;;;14.70;12.20;;;;;;;;;;4959808;28;20225;-83
2022/12/17 23:08:55;;;;;;;14.00;11.33;;;;;;;;;;4975630;28;20222;-83
2022/12/17 23:11:26;;;;;;;15.63;11.33;;;;;;;;;;4968922;28;20226;-83
2022/12/17 23:13:51;;;;;;;15.50;11.03;;;;;;;;;;4940761;29;20251;-85
2022/12/17 23:16:19;;;;;;;14.53;12.37;;;;;;;;;;4924182;28;20255;-85
2022/12/17 23:18:48;;;;;;;15.87;12.40;;;;;;;;;;4940110;29;20223;-84
2022/12/17 23:21:23;;;;;;;16.70;11.03;;;;;;;;;;4952636;28;20254;-85
2022/12/17 23:23:52;;;;;;;15.57;10.97;;;;;;;;;;4957566;28;20213;-86
2022/12/17 23:26:20;;;;;;;15.80;11.73;;;;;;;;;;4982503;28;20210;-83
2022/12/17 23:28:51;;;;;;;13.20;10.90;;;;;;;;;;5003238;28;20219;-82
2022/12/17 23:31:17;;;;;;;15.53;10.87;;;;;;;;;;4987021;28;20217;-83
2022/12/17 23:33:43;;;;;;;12.53;10.10;;;;;;;;;;5003501;28;20209;-83
2022/12/17 23:36:15;;;;;;;14.43;11.37;;;;;;;;;;5018043;28;20248;-85
2022/12/17 23:38:41;;;;;;;14.93;12.57;;;;;;;;;;4982392;28;20201;-83
2022/12/17 23:41:08;;;;;;;15.67;12.37;;;;;;;;;;5002153;28;20223;-83
2022/12/17 23:43:35;;;;;;;12.73;10.30;;;;;;;;;;5007960;28;20233;-85
2022/12/17 23:46:00;;;;;;;13.23;10.70;;;;;;;;;;5003677;28;20296;-85
2022/12/17 23:48:30;;;;;;;14.73;10.77;;;;;;;;;;4973138;28;20221;-84
2022/12/17 23:50:56;;;;;;;13.20;10.57;;;;;;;;;;4964709;28;20230;-84
2022/12/17 23:53:24;;;;;;;14.43;10.77;;;;;;;;;;4991945;28;20239;-85
2022/12/17 23:55:50;;;;;;;13.40;10.37;;;;;;;;;;4990095;28;20217;-85
2022/12/17 23:58:18;;;;;;;14.53;11.17;;;;;;;;;;4979905;28;20221;-83
